Time;durP1;ratioP1;P1;durP2;ratioP2;P2;SDS_P1;SDS_P2;PMS_P1;PMS_P2;Temp;Humidity;BMP_temperature;BMP_pressure;BME280_temperature;BME280_humidity;BME280_pressure;Samples;Min_cycle;Max_cycle;Signal;HPM_P1;HPM_P2
2021/04/17 00:02:05;;;;;;;17.25;10.43;;;;;;;11.88;50.61;100459.03;1771131;81;21603;-76
2021/04/17 00:04:33;;;;;;;12.98;9.68;;;;;;;11.82;50.66;100456.52;1771017;81;21176;-76
2021/04/17 00:07:00;;;;;;;14.35;11.00;;;;;;;11.85;50.63;100458.01;1774891;78;21223;-76
2021/04/17 00:09:28;;;;;;;9.93;8.75;;;;;;;11.86;50.65;100455.69;1774650;79;21192;-76
2021/04/17 00:12:00;;;;;;;9.53;8.33;;;;;;;11.89;50.49;100450.80;1802158;79;21180;-76
2021/04/17 00:14:30;;;;;;;7.50;6.42;;;;;;;11.88;50.49;100456.34;1803319;79;21192;-76
2021/04/17 00:16:59;;;;;;;6.58;5.92;;;;;;;11.87;50.47;100458.70;1798787;79;21654;-77
2021/04/17 00:19:26;;;;;;;;;;;;;;;11.81;50.63;100461.98;1805692;79;21638;-75
2021/04/17 00:21:53;;;;;;;6.72;5.83;;;;;;;11.80;50.74;100458.47;1802836;79;20265;-77
2021/04/17 00:24:21;;;;;;;7.22;6.15;;;;;;;11.86;50.74;100461.05;1802675;79;21172;-75
2021/04/17 00:26:48;;;;;;;6.67;5.92;;;;;;;11.92;50.75;100454.50;1803583;79;21571;-76
2021/04/17 00:29:15;;;;;;;10.53;8.53;;;;;;;11.89;50.64;100457.51;1804366;79;21172;-77
2021/04/17 00:31:42;;;;;;;12.25;10.38;;;;;;;11.84;50.59;100455.83;1804365;79;21025;-75
2021/04/17 00:34:10;;;;;;;15.90;12.98;;;;;;;11.76;50.72;100454.95;1804274;79;21132;-76
2021/04/17 00:36:37;;;;;;;;;;;;;;;11.77;50.84;100461.52;1777639;79;21144;-77
2021/04/17 00:39:05;;;;;;;20.95;16.62;;;;;;;11.80;50.92;100459.81;1804250;79;20300;-77
2021/04/17 00:41:34;;;;;;;21.02;16.27;;;;;;;11.83;50.89;100462.20;1804275;79;21101;-77
2021/04/17 00:44:02;;;;;;;25.45;19.35;;;;;;;11.92;50.88;100459.03;1804247;79;21054;-77
2021/04/17 00:46:31;;;;;;;27.60;20.70;;;;;;;11.97;50.67;100463.39;1804416;79;21089;-77
2021/04/17 00:49:02;;;;;;;19.35;13.50;;;;;;;12.04;50.68;100459.05;1804241;79;21548;-77
2021/04/17 00:51:29;;;;;;;23.80;16.12;;;;;;;12.14;50.40;100468.27;1804358;79;21140;-76
2021/04/17 00:53:57;;;;;;;33.42;21.23;;;;;;;12.07;50.29;100466.74;1775127;79;21018;-76
2021/04/17 00:56:25;;;;;;;;;;;;;;;11.99;50.46;100469.45;1807033;79;21529;-76
2021/04/17 00:58:52;;;;;;;27.98;19.02;;;;;;;11.96;50.57;100475.14;1804485;79;20130;-76
2021/04/17 01:01:19;;;;;;;;;;;;;;;11.96;50.66;100477.83;1806907;79;21551;-76
2021/04/17 01:03:57;;;;;;;21.15;14.45;;;;;;;12.00;50.76;100484.55;1804227;79;20217;-76
2021/04/17 01:07:05;;;;;;;20.65;13.48;;;;;;;12.04;50.61;100476.50;1791102;79;21233;-77
2021/04/17 01:09:37;;;;;;;15.50;11.00;;;;;;;12.11;50.65;100480.17;1772570;81;21063;-75
2021/04/17 01:12:13;;;;;;;13.53;8.95;;;;;;;12.25;50.55;100483.20;1772499;81;21564;-74
2021/04/17 01:14:49;;;;;;;16.35;10.10;;;;;;;12.32;50.40;100481.02;1772592;81;21093;-75
2021/04/17 01:17:16;;;;;;;17.37;11.95;;;;;;;12.38;50.18;100482.19;1772539;81;21164;-76
2021/04/17 01:19:52;;;;;;;21.87;13.93;;;;;;;12.41;50.06;100475.98;1772528;81;21117;-76
2021/04/17 01:22:23;;;;;;;28.40;17.30;;;;;;;12.47;50.00;100483.85;1772322;81;21560;-76
2021/04/17 01:25:13;;;;;;;29.23;17.25;;;;;;;12.48;49.97;100490.89;1772381;81;21053;-75
2021/04/17 01:27:40;;;;;;;30.37;17.00;;;;;;;12.48;49.86;100488.72;1772587;81;21057;-76
2021/04/17 01:30:11;;;;;;;32.85;20.05;;;;;;;12.46;49.85;100493.44;1772620;81;21172;-75
2021/04/17 01:32:38;;;;;;;31.57;21.20;;;;;;;12.45;49.85;100493.94;1772488;81;21555;-76
2021/04/17 01:35:08;;;;;;;34.58;23.95;;;;;;;12.39;49.85;100495.44;1772519;81;21604;-77
2021/04/17 01:37:53;;;;;;;31.15;21.73;;;;;;;12.33;49.98;100493.94;1772533;81;21140;-75
2021/04/17 01:40:23;;;;;;;33.65;21.87;;;;;;;12.33;50.01;100493.44;1770590;81;21066;-75
2021/04/17 01:42:51;;;;;;;26.75;20.05;;;;;;;12.34;50.04;100499.64;1772501;81;21101;-75
2021/04/17 01:45:27;;;;;;;23.60;16.52;;;;;;;12.41;50.14;100492.59;1772457;81;21129;-75
2021/04/17 01:47:56;;;;;;;24.45;15.58;;;;;;;12.50;49.96;100490.23;1772590;81;21069;-76
2021/04/17 01:50:28;;;;;;;22.50;15.43;;;;;;;12.55;49.82;100493.25;1772565;81;21148;-77
2021/04/17 01:52:56;;;;;;;20.88;13.93;;;;;;;12.58;49.78;100495.61;1744282;81;21598;-76
2021/04/17 01:55:24;;;;;;;19.45;13.58;;;;;;;12.60;49.72;100493.58;1769706;81;21566;-76
2021/04/17 01:57:51;;;;;;;21.52;16.23;;;;;;;12.59;49.70;100493.25;1772505;81;21519;-76
2021/04/17 02:00:20;;;;;;;22.35;17.17;;;;;;;12.55;49.76;100487.87;1769736;80;21156;-76
2021/04/17 02:02:47;;;;;;;20.97;16.70;;;;;;;12.56;49.78;100482.83;1772635;81;21559;-76
2021/04/17 02:05:15;;;;;;;20.15;13.58;;;;;;;12.59;49.76;100486.53;1772455;81;21500;-75
2021/04/17 02:07:43;;;;;;;23.35;13.28;;;;;;;12.60;49.71;100486.02;1772599;81;21076;-75
2021/04/17 02:10:11;;;;;;;18.00;12.58;;;;;;;12.61;49.77;100493.91;1772664;81;21091;-75
2021/04/17 02:12:40;;;;;;;18.50;14.07;;;;;;;12.61;49.79;100493.91;1772604;81;21072;-75
2021/04/17 02:15:08;;;;;;;24.00;14.00;;;;;;;12.66;49.80;100494.73;1772550;81;21037;-76
2021/04/17 02:17:55;;;;;;;21.02;14.10;;;;;;;12.75;49.69;100502.28;1772598;81;21204;-75
2021/04/17 02:20:41;;;;;;;18.45;12.95;;;;;;;12.79;49.54;100507.14;1772600;81;21085;-75
2021/04/17 02:23:12;;;;;;;21.00;14.10;;;;;;;12.73;49.49;100509.69;1772562;81;21172;-75
2021/04/17 02:25:39;;;;;;;17.50;11.65;;;;;;;12.67;49.75;100516.08;1772475;81;21176;-75
2021/04/17 02:28:07;;;;;;;19.92;12.33;;;;;;;12.64;49.85;100513.73;1772519;81;21152;-74
2021/04/17 02:30:38;;;;;;;18.32;12.23;;;;;;;12.64;49.93;100514.23;1772635;81;21148;-75
2021/04/17 02:33:05;;;;;;;25.55;13.65;;;;;;;12.64;50.02;100524.48;1772593;81;21211;-75
2021/04/17 02:35:33;;;;;;;23.38;14.87;;;;;;;12.61;50.04;100522.63;1772513;81;21173;-75
2021/04/17 02:38:01;;;;;;;21.65;12.82;;;;;;;12.60;50.24;100524.98;1772629;81;21053;-75
2021/04/17 02:40:28;;;;;;;;;;;;;;;12.62;50.32;100530.51;1775181;81;21160;-75
2021/04/17 02:42:55;;;;;;;21.48;11.83;;;;;;;12.65;50.18;100532.86;1772462;81;20220;-75
2021/04/17 02:45:22;;;;;;;;;;;;;;;12.66;50.17;100540.42;1775164;81;21089;-77
2021/04/17 02:47:49;;;;;;;15.90;9.60;;;;;;;12.63;50.19;100534.89;1772548;81;20216;-76
2021/04/17 02:50:20;;;;;;;13.75;6.92;;;;;;;12.66;50.32;100539.08;1772472;81;21172;-75
2021/04/17 02:52:49;;;;;;;16.25;7.85;;;;;;;12.66;50.38;100535.87;1772550;81;21143;-76
2021/04/17 02:55:17;;;;;;;13.03;7.10;;;;;;;12.67;50.42;100541.61;1772596;81;21164;-77
2021/04/17 02:57:45;;;;;;;10.35;6.75;;;;;;;12.73;50.52;100548.66;1744124;81;21113;-75
2021/04/17 03:00:19;;;;;;;10.80;7.37;;;;;;;12.78;50.61;100550.33;1772528;81;21065;-76
2021/04/17 03:02:46;;;;;;;10.35;7.12;;;;;;;12.83;50.51;100550.66;1772582;81;21088;-75
2021/04/17 03:05:14;;;;;;;9.48;6.55;;;;;;;12.89;50.33;100553.48;1771543;81;21175;-76
2021/04/17 03:07:41;;;;;;;8.58;5.87;;;;;;;12.90;50.22;100558.38;1772686;81;21069;-74
2021/04/17 03:10:09;;;;;;;;;;;;;;;12.92;50.36;100559.04;1775258;81;21140;-77
2021/04/17 03:12:36;;;;;;;13.83;6.97;;;;;;;12.99;50.38;100554.67;1772913;81;20475;-76
2021/04/17 03:15:05;;;;;;;10.20;7.47;;;;;;;13.05;50.42;100561.20;1772671;81;21160;-76
2021/04/17 03:17:33;;;;;;;9.63;7.15;;;;;;;13.10;50.46;100563.70;1772724;81;21057;-76
2021/04/17 03:20:02;;;;;;;11.45;7.58;;;;;;;13.19;50.41;100562.66;1772718;81;21069;-76
2021/04/17 03:22:29;;;;;;;12.85;8.80;;;;;;;13.26;50.32;100565.52;1772728;81;21152;-76
2021/04/17 03:24:56;;;;;;;;;;;;;;;13.35;50.18;100571.72;1774946;81;21144;-75
2021/04/17 03:27:23;;;;;;;13.32;8.75;;;;;;;13.32;50.30;100569.39;1771300;81;20287;-76
2021/04/17 03:29:50;;;;;;;;;;;;;;;13.35;50.36;100576.63;1773901;81;21199;-76
2021/04/17 03:32:18;;;;;;;17.30;9.53;;;;;;;13.40;50.44;100581.48;1771435;81;20267;-76
2021/04/17 03:34:45;;;;;;;14.45;11.15;;;;;;;13.26;50.79;100583.01;1770829;81;21180;-76
2021/04/17 03:37:12;;;;;;;;;;;;;;;13.18;50.98;100585.20;1774918;78;21181;-76
2021/04/17 03:39:39;;;;;;;12.68;9.45;;;;;;;13.18;51.06;100592.44;1771671;79;20275;-75
2021/04/17 03:42:07;;;;;;;;;;;;;;;13.17;51.13;100591.60;1773199;81;21662;-75
2021/04/17 03:44:34;;;;;;;15.48;9.73;;;;;;;13.21;51.17;100596.94;1771723;81;20247;-76
2021/04/17 03:47:01;;;;;;;13.15;9.63;;;;;;;13.20;51.27;100599.30;1771816;81;21168;-76
2021/04/17 03:49:29;;;;;;;14.23;9.90;;;;;;;13.21;51.27;100602.32;1770961;81;21199;-76
2021/04/17 03:51:56;;;;;;;15.00;10.70;;;;;;;13.24;51.14;100603.88;1771164;81;21192;-74
2021/04/17 03:54:23;;;;;;;15.43;10.72;;;;;;;13.29;51.12;100614.12;1771531;81;21175;-76
2021/04/17 03:56:50;;;;;;;16.30;11.55;;;;;;;13.52;50.73;100613.70;1771868;81;21176;-75
2021/04/17 03:59:17;;;;;;;;;;;;;;;13.65;50.44;100613.16;1774138;81;21180;-76
2021/04/17 04:01:44;;;;;;;15.83;11.48;;;;;;;13.65;50.31;100620.73;1771323;81;20287;-76
2021/04/17 04:04:11;;;;;;;;;;;;;;;13.63;50.40;100621.94;1779318;79;21121;-75
2021/04/17 04:06:40;;;;;;;;;;;;;;;13.64;50.32;100627.64;1805549;79;20272;-76
2021/04/17 04:09:08;;;;;;;16.52;10.75;;;;;;;13.64;50.44;100633.02;1802940;79;20378;-75
2021/04/17 04:11:36;;;;;;;14.78;10.88;;;;;;;13.65;50.51;100631.49;1804034;79;21168;-75
2021/04/17 04:14:03;;;;;;;12.15;10.20;;;;;;;13.66;50.55;100633.16;1803962;79;21112;-78
2021/04/17 04:16:30;;;;;;;17.32;10.60;;;;;;;13.68;50.57;100639.23;1804166;79;21152;-76
2021/04/17 04:18:58;;;;;;;15.25;11.12;;;;;;;13.73;50.63;100647.30;1804214;79;21632;-76
2021/04/17 04:21:25;;;;;;;13.98;11.45;;;;;;;13.80;50.59;100650.95;1786712;78;21168;-77
2021/04/17 04:23:52;;;;;;;18.77;13.45;;;;;;;13.84;50.49;100650.43;1743031;81;21156;-76
2021/04/17 04:26:19;;;;;;;;;;;;;;;13.86;50.42;100654.31;1773774;81;21175;-74
2021/04/17 04:28:46;;;;;;;20.40;14.58;;;;;;;13.78;50.51;100653.83;1770979;81;20641;-76
2021/04/17 04:31:13;;;;;;;19.10;12.20;;;;;;;13.73;50.66;100664.80;1742787;81;21687;-76
2021/04/17 04:33:41;;;;;;;17.37;12.15;;;;;;;13.67;50.70;100668.52;1771126;80;21164;-76
2021/04/17 04:36:09;;;;;;;16.42;12.13;;;;;;;13.64;50.81;100663.98;1771297;81;21666;-76
2021/04/17 04:38:36;;;;;;;;;;;;;;;13.60;51.00;100670.20;1773722;81;21216;-77
2021/04/17 04:41:05;;;;;;;22.55;14.78;;;;;;;13.60;51.19;100667.52;1770977;81;20260;-75
2021/04/17 04:43:32;;;;;;;25.15;17.27;;;;;;;13.62;51.25;100669.52;1770990;81;21272;-76
2021/04/17 04:46:00;;;;;;;21.23;15.72;;;;;;;13.66;51.23;100674.89;1771020;81;21172;-77
2021/04/17 04:48:27;;;;;;;19.23;13.58;;;;;;;13.70;51.21;100677.56;1771219;81;21663;-77
2021/04/17 04:50:54;;;;;;;19.05;13.93;;;;;;;13.73;51.20;100676.91;1771206;81;21212;-78
2021/04/17 04:53:21;;;;;;;19.73;14.45;;;;;;;13.72;51.23;100677.42;1772391;81;21064;-77
2021/04/17 04:55:50;;;;;;;;;;;;;;;13.71;51.30;100685.14;1774757;81;21191;-77
2021/04/17 04:58:17;;;;;;;28.30;18.17;;;;;;;13.68;51.45;100683.65;1772237;81;20232;-76
2021/04/17 05:00:44;;;;;;;;;;;;;;;13.70;51.48;100690.20;1775122;81;21147;-77
2021/04/17 05:03:10;;;;;;;31.30;21.70;;;;;;;13.64;51.57;100690.38;1772988;78;20220;-76
2021/04/17 05:05:37;;;;;;;;;;;;;;;13.65;51.59;100694.75;1773199;79;21723;-76
2021/04/17 05:08:06;;;;;;;29.77;21.12;;;;;;;13.66;51.53;100684.31;1770136;81;20271;-75
2021/04/17 05:10:33;;;;;;;27.70;19.73;;;;;;;13.64;51.64;100689.04;1767052;81;21188;-76
2021/04/17 05:13:02;;;;;;;29.52;19.98;;;;;;;13.69;51.65;100687.17;1770260;81;21207;-78
2021/04/17 05:15:29;;;;;;;27.07;20.02;;;;;;;13.74;51.70;100692.05;1770614;81;21192;-76
2021/04/17 05:17:56;;;;;;;23.27;18.32;;;;;;;13.79;51.68;100689.66;1770664;81;21220;-76
2021/04/17 05:20:25;;;;;;;23.00;17.98;;;;;;;13.84;51.66;100690.81;1770798;81;21069;-76
2021/04/17 05:22:53;;;;;;;21.37;16.10;;;;;;;13.88;51.62;100696.19;1770843;81;21675;-77
2021/04/17 05:25:20;;;;;;;20.62;14.70;;;;;;;13.91;51.59;100699.05;1791640;79;21185;-76
2021/04/17 05:27:47;;;;;;;15.83;12.23;;;;;;;13.95;51.55;100703.08;1800195;79;21211;-76
2021/04/17 05:30:16;;;;;;;;;;;;;;;14.02;51.48;100704.05;1803162;79;21157;-77
2021/04/17 05:32:43;;;;;;;14.43;10.98;;;;;;;14.03;51.56;100702.19;1771557;79;20257;-76
2021/04/17 05:35:11;;;;;;;14.07;11.65;;;;;;;14.06;51.56;100701.85;1751965;80;21189;-76
2021/04/17 05:37:38;;;;;;;12.90;11.20;;;;;;;14.11;51.52;100702.16;1801559;79;21575;-77
2021/04/17 05:40:07;;;;;;;;;;;;;;;14.14;51.50;100701.31;1804539;79;21173;-76
2021/04/17 05:42:33;;;;;;;;;;;;;;;14.18;51.45;100702.64;1788167;79;20549;-77
2021/04/17 05:45:00;;;;;;;11.50;10.08;;;;;;;14.15;51.55;100705.67;1771975;81;20216;-77
2021/04/17 05:47:28;;;;;;;11.03;9.55;;;;;;;14.10;51.72;100707.22;1794762;79;21191;-77
2021/04/17 05:49:55;;;;;;;11.22;9.78;;;;;;;14.18;51.47;100705.34;1803270;79;21140;-76
2021/04/17 05:52:23;;;;;;;11.73;9.53;;;;;;;14.23;51.50;100703.97;1802515;79;21168;-76
2021/04/17 05:54:50;;;;;;;;;;;;;;;14.28;51.55;100717.75;1786654;79;21203;-77
2021/04/17 05:57:17;;;;;;;12.43;10.28;;;;;;;14.34;51.48;100712.99;1770924;81;20271;-76
2021/04/17 05:59:44;;;;;;;10.90;9.65;;;;;;;14.37;51.39;100718.87;1770999;81;21592;-77
2021/04/17 06:02:12;;;;;;;10.68;8.78;;;;;;;14.40;51.38;100710.96;1772576;78;21189;-75
2021/04/17 06:04:39;;;;;;;8.98;8.05;;;;;;;14.43;51.36;100715.98;1786755;78;21049;-76
2021/04/17 06:07:06;;;;;;;;;;;;;;;14.48;51.25;100719.01;1799142;78;21489;-76
2021/04/17 06:09:33;;;;;;;9.88;8.28;;;;;;;14.52;51.18;100720.34;1800926;79;20676;-78
2021/04/17 06:12:00;;;;;;;10.60;9.08;;;;;;;14.53;51.14;100726.05;1802389;79;21167;-77
2021/04/17 06:14:27;;;;;;;12.53;9.58;;;;;;;14.56;51.11;100732.45;1802453;79;21176;-76
2021/04/17 06:16:55;;;;;;;12.18;9.65;;;;;;;14.61;51.02;100727.36;1773229;79;21541;-76
2021/04/17 06:19:24;;;;;;;10.75;9.55;;;;;;;14.46;51.41;100723.20;1802238;79;21125;-77
2021/04/17 06:21:52;;;;;;;11.08;9.03;;;;;;;14.44;51.80;100724.39;1785364;79;21144;-75
2021/04/17 06:24:19;;;;;;;8.80;7.90;;;;;;;14.47;51.83;100725.39;1797290;79;21113;-76
2021/04/17 06:26:46;;;;;;;9.10;7.55;;;;;;;14.51;51.79;100732.14;1783851;79;21129;-76
2021/04/17 06:29:13;;;;;;;9.05;8.15;;;;;;;14.56;51.60;100733.80;1771896;79;21458;-77
2021/04/17 06:31:41;;;;;;;9.30;8.30;;;;;;;14.61;51.50;100734.09;1801249;79;21415;-77
2021/04/17 06:34:09;;;;;;;9.25;8.08;;;;;;;14.65;51.36;100734.08;1778185;79;21133;-77
2021/04/17 06:36:36;;;;;;;9.08;7.60;;;;;;;14.66;51.40;100737.09;1769973;81;21683;-75
2021/04/17 06:39:07;;;;;;;7.90;7.03;;;;;;;14.72;51.26;100738.27;1770523;81;21112;-76
2021/04/17 06:41:35;;;;;;;11.68;8.93;;;;;;;14.76;51.06;100746.33;1770156;81;21120;-76
2021/04/17 06:44:05;;;;;;;7.10;6.40;;;;;;;14.76;50.90;100744.98;1770091;81;21411;-76
2021/04/17 06:46:32;;;;;;;8.00;5.95;;;;;;;14.78;50.77;100749.67;1793031;79;21540;-76
2021/04/17 06:49:01;;;;;;;7.53;6.83;;;;;;;14.81;50.63;100752.53;1769852;79;21132;-76
2021/04/17 06:51:28;;;;;;;7.45;6.75;;;;;;;14.81;50.51;100753.89;1803232;79;21619;-76
2021/04/17 06:53:56;;;;;;;7.08;6.37;;;;;;;14.81;50.46;100752.53;1802364;79;21228;-75
2021/04/17 06:56:24;;;;;;;8.03;7.22;;;;;;;14.82;50.49;100755.05;1826492;78;21149;-77
2021/04/17 06:58:51;;;;;;;6.67;6.08;;;;;;;14.83;50.52;100757.23;1812883;79;21671;-77
2021/04/17 07:01:18;;;;;;;6.53;5.92;;;;;;;14.84;50.50;100762.95;1777764;78;21168;-76
2021/04/17 07:03:47;;;;;;;6.70;6.10;;;;;;;14.84;50.41;100757.55;1770367;81;21235;-77
2021/04/17 07:06:14;;;;;;;7.08;6.40;;;;;;;14.88;50.30;100757.53;1771504;81;21140;-76
2021/04/17 07:08:43;;;;;;;10.15;7.25;;;;;;;14.91;50.28;100763.92;1771541;81;21127;-76
2021/04/17 07:11:10;;;;;;;8.50;7.60;;;;;;;14.94;50.18;100764.89;1772688;81;21187;-77
2021/04/17 07:13:58;;;;;;;9.63;8.63;;;;;;;14.96;50.25;100769.11;1773052;81;21599;-75
2021/04/17 07:16:27;;;;;;;9.90;8.90;;;;;;;14.96;50.30;100766.92;1708661;83;21238;-78
2021/04/17 07:18:55;;;;;;;9.48;8.58;;;;;;;15.11;49.91;100778.60;1751634;81;21231;-77
2021/04/17 07:21:26;;;;;;;9.25;8.35;;;;;;;15.12;49.82;100778.92;1775541;79;21525;-76
2021/04/17 07:23:54;;;;;;;10.53;8.38;;;;;;;15.16;49.64;100781.59;1771363;79;21663;-75
2021/04/17 07:26:27;;;;;;;11.38;10.18;;;;;;;15.16;49.55;100786.16;1780807;78;21734;-77
2021/04/17 07:29:00;;;;;;;15.08;11.90;;;;;;;15.16;49.48;100788.34;1770624;81;21265;-77
2021/04/17 07:31:30;;;;;;;12.90;11.00;;;;;;;15.15;49.37;100792.06;1771138;81;21477;-76
2021/04/17 07:34:16;;;;;;;12.85;11.60;;;;;;;15.16;49.26;100794.25;1769674;81;21179;-77
2021/04/17 07:36:58;;;;;;;13.53;11.95;;;;;;;15.17;49.15;100803.53;1746899;81;21770;-79
2021/04/17 07:39:35;;;;;;;12.93;11.43;;;;;;;15.13;48.93;100803.56;1770485;81;21707;-78
2021/04/17 07:42:06;;;;;;;;;;;;;;;15.05;48.94;100809.52;1774124;79;21208;-78
2021/04/17 07:44:41;;;;;;;11.12;10.03;;;;;;;15.02;49.10;100810.70;1739788;81;20268;-77
2021/04/17 07:47:09;;;;;;;11.30;10.20;;;;;;;14.99;49.05;100817.83;1786488;79;21275;-77
2021/04/17 07:49:39;;;;;;;13.22;11.88;;;;;;;14.99;49.03;100819.17;1769405;81;21409;-77
2021/04/17 07:52:13;;;;;;;12.20;10.75;;;;;;;15.03;48.98;100820.47;1768777;81;21200;-74
2021/04/17 07:55:08;;;;;;;12.65;11.33;;;;;;;15.06;48.89;100818.77;1769719;81;21710;-77
2021/04/17 07:57:45;;;;;;;12.60;11.40;;;;;;;15.07;48.75;100822.30;1741696;81;21176;-77
2021/04/17 08:00:20;;;;;;;14.18;11.30;;;;;;;15.06;48.63;100821.47;1771163;79;21098;-77
2021/04/17 08:02:51;;;;;;;12.25;10.95;;;;;;;15.05;48.68;100829.23;1770918;81;21112;-76
2021/04/17 08:05:20;;;;;;;11.80;10.60;;;;;;;15.04;48.59;100826.73;1770922;79;21440;-76
2021/04/17 08:07:49;;;;;;;12.47;11.18;;;;;;;15.04;48.51;100834.31;1790704;79;21148;-76
2021/04/17 08:10:16;;;;;;;12.63;11.22;;;;;;;15.04;48.53;100826.22;1751221;81;21140;-75
2021/04/17 08:12:45;;;;;;;13.32;11.85;;;;;;;15.04;48.48;100831.61;1797414;79;21113;-76
2021/04/17 08:15:15;;;;;;;12.90;11.60;;;;;;;15.06;48.41;100832.77;1768656;81;21137;-76
2021/04/17 08:17:44;;;;;;;13.32;11.93;;;;;;;15.09;48.26;100828.38;1800182;79;21616;-76
2021/04/17 08:20:14;;;;;;;12.93;11.63;;;;;;;15.12;48.21;100834.23;1778080;80;21123;-76
2021/04/17 08:22:50;;;;;;;14.73;11.55;;;;;;;15.11;48.14;100835.27;1769456;81;21162;-76
2021/04/17 08:25:22;;;;;;;13.60;12.20;;;;;;;15.11;48.12;100831.73;1769513;81;21112;-77
2021/04/17 08:27:51;;;;;;;13.38;10.70;;;;;;;15.13;47.80;100837.80;1770450;81;21116;-76
2021/04/17 08:30:25;;;;;;;12.33;11.03;;;;;;;15.12;47.77;100836.09;1770817;81;21160;-76
2021/04/17 08:32:52;;;;;;;12.40;11.18;;;;;;;15.14;47.74;100834.08;1798998;79;21176;-77
2021/04/17 08:35:25;;;;;;;16.60;13.98;;;;;;;15.13;47.72;100839.98;1802216;79;21168;-78
2021/04/17 08:38:01;;;;;;;16.70;12.93;;;;;;;15.12;47.79;100836.93;1802448;79;21184;-75
2021/04/17 08:40:43;;;;;;;13.70;11.68;;;;;;;15.16;47.65;100832.02;1790995;79;21192;-77
2021/04/17 08:43:19;;;;;;;14.85;13.15;;;;;;;15.19;47.58;100831.67;1801138;79;21191;-77
2021/04/17 08:46:07;;;;;;;14.90;13.03;;;;;;;15.20;47.52;100830.14;1792483;78;21124;-76
2021/04/17 08:48:54;;;;;;;14.10;12.70;;;;;;;15.18;47.45;100836.23;1801969;79;21141;-77
2021/04/17 08:51:27;;;;;;;14.80;13.30;;;;;;;15.18;47.46;100834.89;1794285;79;21089;-77
2021/04/17 08:54:06;;;;;;;14.55;11.70;;;;;;;15.18;47.61;100838.94;1766107;80;21464;-78
2021/04/17 08:57:03;;;;;;;14.18;12.20;;;;;;;15.19;47.61;100837.91;1795026;79;21161;-77
2021/04/17 08:59:33;;;;;;;14.23;12.63;;;;;;;15.21;47.67;100835.89;1762626;81;21718;-79
2021/04/17 09:02:12;;;;;;;16.40;14.30;;;;;;;15.25;47.62;100833.65;1793957;79;21206;-78
2021/04/17 09:05:08;;;;;;;16.30;13.78;;;;;;;15.28;47.55;100839.21;1763689;80;21869;-78
2021/04/17 09:07:37;;;;;;;14.33;12.82;;;;;;;15.31;47.53;100834.81;1794654;79;21120;-79
2021/04/17 09:10:35;;;;;;;19.90;16.95;;;;;;;15.34;47.43;100826.34;1763388;81;21138;-79
2021/04/17 09:13:17;;;;;;;14.10;12.40;;;;;;;15.38;47.38;100834.41;1794565;78;21470;-78
2021/04/17 09:15:59;;;;;;;14.87;13.32;;;;;;;15.42;47.30;100839.27;1793511;79;21631;-77
2021/04/17 09:18:38;;;;;;;13.58;12.18;;;;;;;15.44;47.12;100832.33;1774582;79;21188;-77
2021/04/17 09:21:24;;;;;;;13.32;11.57;;;;;;;15.46;46.93;100833.00;1786127;79;21112;-77
2021/04/17 09:23:53;;;;;;;12.93;11.20;;;;;;;15.49;46.81;100827.25;1775355;80;21199;-77
2021/04/17 09:26:36;;;;;;;13.88;11.08;;;;;;;15.50;46.79;100835.67;1769810;81;21248;-77
2021/04/17 09:29:08;;;;;;;14.35;12.20;;;;;;;15.51;46.82;100835.99;1770813;81;21172;-77
2021/04/17 09:31:37;;;;;;;15.15;12.70;;;;;;;15.52;46.81;100836.31;1742525;81;21179;-76
2021/04/17 09:34:14;;;;;;;18.75;13.13;;;;;;;15.53;46.80;100839.34;1770693;81;21501;-76
2021/04/17 09:36:42;;;;;;;14.63;13.13;;;;;;;15.56;46.75;100840.84;1772302;78;21163;-75
2021/04/17 09:39:29;;;;;;;14.93;13.40;;;;;;;15.58;46.75;100839.66;1797439;78;21200;-77
2021/04/17 09:41:59;;;;;;;15.43;12.77;;;;;;;15.60;46.86;100841.66;1820170;78;21410;-74
2021/04/17 09:44:28;;;;;;;14.07;12.63;;;;;;;15.63;46.77;100839.95;1795029;79;21052;-77
2021/04/17 09:47:10;;;;;;;15.48;12.73;;;;;;;15.65;46.62;100837.92;1788833;78;21129;-77
2021/04/17 09:49:44;;;;;;;15.60;12.60;;;;;;;15.66;46.48;100837.41;1779835;78;21120;-76
2021/04/17 09:52:20;;;;;;;13.65;12.10;;;;;;;15.67;46.45;100844.52;1779408;79;21101;-76
2021/04/17 09:55:02;;;;;;;16.15;10.70;;;;;;;15.69;46.33;100839.76;1800977;79;21140;-77
2021/04/17 09:57:29;;;;;;;13.15;10.82;;;;;;;15.68;46.27;100837.57;1800872;79;21418;-77
2021/04/17 10:00:00;;;;;;;12.88;11.38;;;;;;;15.68;46.19;100841.63;1800558;79;21192;-77
2021/04/17 10:02:46;;;;;;;13.25;11.33;;;;;;;15.69;46.20;100843.81;1801137;79;21176;-76
2021/04/17 10:05:15;;;;;;;13.18;11.63;;;;;;;15.64;46.33;100850.27;1798566;79;21438;-76
2021/04/17 10:07:47;;;;;;;12.23;10.80;;;;;;;15.64;46.34;100855.16;1801689;79;21117;-74
2021/04/17 10:10:14;;;;;;;13.90;11.15;;;;;;;15.68;45.97;100853.77;1801685;79;21871;-77
2021/04/17 10:12:55;;;;;;;12.50;10.70;;;;;;;15.69;45.85;100853.27;1802414;79;21097;-76
2021/04/17 10:15:27;;;;;;;12.50;11.20;;;;;;;15.71;45.93;100860.17;1801683;79;21108;-77
2021/04/17 10:17:57;;;;;;;13.18;11.28;;;;;;;15.74;45.85;100861.66;1801954;79;21182;-76
2021/04/17 10:20:25;;;;;;;13.25;11.88;;;;;;;15.74;45.79;100864.35;1801990;79;21136;-76
2021/04/17 10:22:58;;;;;;;12.28;10.98;;;;;;;15.77;45.79;100869.92;1772640;79;21080;-77
2021/04/17 10:25:44;;;;;;;12.43;10.65;;;;;;;15.84;45.63;100864.09;1800845;79;21596;-76
2021/04/17 10:28:25;;;;;;;14.05;11.55;;;;;;;15.81;45.64;100866.67;1801383;79;21093;-76
2021/04/17 10:30:56;;;;;;;13.90;11.22;;;;;;;15.78;45.57;100864.84;1791483;79;21148;-76
2021/04/17 10:33:26;;;;;;;13.25;10.50;;;;;;;15.77;45.72;100864.52;1797197;79;21152;-76
2021/04/17 10:35:57;;;;;;;11.80;10.25;;;;;;;15.77;45.87;100869.92;1791119;78;21144;-76
2021/04/17 10:38:32;;;;;;;11.88;10.68;;;;;;;15.77;45.92;100876.67;1736720;81;21946;-75
2021/04/17 10:41:02;;;;;;;12.60;11.30;;;;;;;15.79;45.79;100873.27;1752107;80;21197;-75
2021/04/17 10:43:30;;;;;;;11.63;10.13;;;;;;;15.78;45.87;100878.34;1764932;80;21152;-76
2021/04/17 10:46:02;;;;;;;10.18;9.10;;;;;;;15.81;45.73;100886.92;1793121;80;21419;-75
2021/04/17 10:48:43;;;;;;;11.93;10.35;;;;;;;15.77;45.25;100882.91;1787530;80;21109;-76
2021/04/17 10:51:15;;;;;;;11.45;10.08;;;;;;;15.77;45.39;100892.36;1751012;80;21106;-77
2021/04/17 10:53:52;;;;;;;11.75;10.55;;;;;;;15.75;45.57;100888.98;1750279;80;21197;-75
2021/04/17 10:56:20;;;;;;;12.00;9.75;;;;;;;15.76;45.59;100892.04;1749479;80;21177;-75
2021/04/17 10:59:01;;;;;;;10.03;9.00;;;;;;;15.73;45.46;100891.88;1737683;80;21122;-76
2021/04/17 11:01:34;;;;;;;11.22;10.10;;;;;;;15.74;45.37;100892.71;1769267;79;21109;-76
2021/04/17 11:04:01;;;;;;;11.15;9.95;;;;;;;15.73;45.18;100890.53;1785292;79;21153;-76
2021/04/17 11:06:35;;;;;;;11.35;10.00;;;;;;;15.73;45.07;100895.93;1770297;81;21474;-76
2021/04/17 11:09:10;;;;;;;11.45;9.78;;;;;;;15.71;45.04;100895.28;1771288;79;21556;-76
2021/04/17 11:11:59;;;;;;;11.63;9.88;;;;;;;15.75;45.11;100891.69;1839584;77;22234;-76
2021/04/17 11:14:28;;;;;;;11.10;9.90;;;;;;;15.72;45.20;100898.82;1803797;77;21682;-75
2021/04/17 11:16:56;;;;;;;10.60;9.50;;;;;;;15.73;45.15;100904.03;1792456;77;21113;-75
2021/04/17 11:19:32;;;;;;;12.05;8.55;;;;;;;15.73;45.11;100901.33;1774948;80;21457;-76
2021/04/17 11:22:21;;;;;;;9.58;8.35;;;;;;;15.76;45.05;100903.33;1780460;77;21138;-76
2021/04/17 11:25:01;;;;;;;9.13;8.23;;;;;;;15.77;45.02;100905.87;1786371;79;21922;-76
2021/04/17 11:27:28;;;;;;;9.23;8.33;;;;;;;15.80;45.26;100902.78;1806542;79;21098;-76
2021/04/17 11:29:58;;;;;;;8.90;8.03;;;;;;;15.84;45.11;100908.67;1805813;79;21624;-77
2021/04/17 11:32:27;;;;;;;9.20;8.25;;;;;;;15.90;45.09;100903.91;1806598;79;21002;-76
2021/04/17 11:34:55;;;;;;;8.10;7.30;;;;;;;15.94;44.99;100899.79;1807105;79;20966;-77
2021/04/17 11:37:24;;;;;;;8.60;7.72;;;;;;;15.99;44.93;100896.06;1807430;79;20946;-77